Time;durP1;ratioP1;P1;durP2;ratioP2;P2;SDS_P1;SDS_P2;PMS_P1;PMS_P2;Temp;Humidity;BMP_temperature;BMP_pressure;BME280_temperature;BME280_humidity;BME280_pressure;Samples;Min_cycle;Max_cycle;Signal;HPM_P1;HPM_P2
2023/08/17 00:02:18;;;;;;;8.87;6.53;;;19.90;36.60;;;;;;5037883;28;45936;-70
2023/08/17 00:04:43;;;;;;;9.97;7.23;;;19.50;37.10;;;;;;5039997;28;46938;-71
2023/08/17 00:07:09;;;;;;;9.33;6.50;;;19.50;38.10;;;;;;5035429;28;47036;-70
2023/08/17 00:09:34;;;;;;;13.33;6.90;;;19.30;38.70;;;;;;5036919;28;46399;-70
2023/08/17 00:12:00;;;;;;;11.23;7.00;;;19.20;39.40;;;;;;5039458;28;46515;-71
2023/08/17 00:14:26;;;;;;;11.20;6.57;;;19.20;39.40;;;;;;5036980;28;46638;-71
2023/08/17 00:16:51;;;;;;;9.67;7.03;;;19.20;38.30;;;;;;5039492;28;46719;-70
2023/08/17 00:19:17;;;;;;;12.73;7.40;;;19.20;39.30;;;;;;5036615;28;46444;-70
2023/08/17 00:21:44;;;;;;;11.37;7.27;;;19.20;39.20;;;;;;5042864;28;46746;-71
2023/08/17 00:24:10;;;;;;;11.50;7.40;;;19.20;39.10;;;;;;5037372;28;46389;-71
2023/08/17 00:26:36;;;;;;;15.50;7.20;;;19.10;38.40;;;;;;5033543;28;46524;-72
2023/08/17 00:29:02;;;;;;;10.83;6.80;;;19.00;39.40;;;;;;5037960;28;46634;-71
2023/08/17 00:31:28;;;;;;;11.50;6.83;;;19.00;39.70;;;;;;5037379;28;46778;-71
2023/08/17 00:33:53;;;;;;;10.47;7.57;;;18.90;40.00;;;;;;5039761;28;46734;-71
2023/08/17 00:36:19;;;;;;;11.77;7.50;;;18.80;39.50;;;;;;5036590;28;46424;-71
2023/08/17 00:38:45;;;;;;;13.37;8.23;;;18.80;40.40;;;;;;5039063;28;46578;-71
2023/08/17 00:41:10;;;;;;;12.73;7.83;;;18.80;40.60;;;;;;5036567;28;46483;-70
2023/08/17 00:43:36;;;;;;;11.50;7.10;;;18.80;40.70;;;;;;5036217;28;46653;-71
2023/08/17 00:46:02;;;;;;;10.00;7.37;;;18.70;40.40;;;;;;5038721;28;46426;-72
2023/08/17 00:48:29;;;;;;;15.87;8.07;;;18.70;41.50;;;;;;5037588;28;46443;-70
2023/08/17 00:50:57;;;;;;;13.07;7.53;;;18.70;41.80;;;;;;5039357;28;46434;-71
2023/08/17 00:53:23;;;;;;;10.20;7.10;;;18.60;42.00;;;;;;5035212;28;46805;-72
2023/08/17 00:55:51;;;;;;;11.30;7.50;;;18.60;41.40;;;;;;5042905;28;48656;-72
2023/08/17 00:58:16;;;;;;;14.60;7.33;;;18.60;42.20;;;;;;5050972;28;46430;-71
2023/08/17 01:00:42;;;;;;;11.80;7.20;;;18.60;42.20;;;;;;5039588;28;46644;-71
2023/08/17 01:03:08;;;;;;;11.83;6.97;;;18.60;42.20;;;;;;5037867;28;46471;-70
2023/08/17 01:05:34;;;;;;;11.77;7.10;;;18.60;41.60;;;;;;5034708;28;47022;-71
2023/08/17 01:07:59;;;;;;;15.77;7.17;;;18.60;42.50;;;;;;5037585;28;46482;-71
2023/08/17 01:10:36;;;;;;;11.63;7.37;;;18.60;42.30;;;;;;5037738;28;46552;-71
2023/08/17 01:13:33;;;;;;;10.90;7.40;;;18.60;42.40;;;;;;5037993;28;46838;-72
2023/08/17 01:16:05;;;;;;;12.97;8.47;;;18.60;41.70;;;;;;4994359;28;47131;-72
2023/08/17 01:18:34;;;;;;;9.60;6.97;;;18.60;42.50;;;;;;5037754;28;46391;-72
2023/08/17 01:21:01;;;;;;;12.07;8.50;;;18.60;42.40;;;;;;5035886;28;46361;-72
2023/08/17 01:23:27;;;;;;;11.30;8.40;;;18.60;42.70;;;;;;5037003;28;46689;-73
2023/08/17 01:25:53;;;;;;;11.60;7.23;;;18.60;42.00;;;;;;5037664;28;46457;-71
2023/08/17 01:28:19;;;;;;;11.30;6.93;;;18.60;42.90;;;;;;5035785;28;46752;-74
2023/08/17 01:31:05;;;;;;;12.90;7.20;;;18.50;43.20;;;;;;5037341;28;46521;-72
2023/08/17 01:33:42;;;;;;;10.23;7.40;;;18.40;42.90;;;;;;5038115;28;46429;-73
2023/08/17 01:36:20;;;;;;;9.10;7.03;;;18.40;43.10;;;;;;5035909;28;46356;-73
2023/08/17 01:38:46;;;;;;;12.57;7.70;;;18.30;44.10;;;;;;5035702;28;46491;-72
2023/08/17 01:41:15;;;;;;;10.73;7.57;;;18.20;44.50;;;;;;5037566;28;46538;-72
2023/08/17 01:43:45;;;;;;;10.73;7.87;;;18.10;44.80;;;;;;5034260;28;46695;-72
2023/08/17 01:46:16;;;;;;;20.50;8.77;;;17.80;44.60;;;;;;5035331;28;47197;-72
2023/08/17 01:48:42;;;;;;;10.27;7.30;;;17.80;45.60;;;;;;5036198;28;46569;-73
2023/08/17 01:51:08;;;;;;;14.33;7.50;;;17.80;45.80;;;;;;5035955;28;46437;-72
2023/08/17 01:53:33;;;;;;;12.20;8.20;;;17.70;45.50;;;;;;5036678;28;45912;-72
2023/08/17 01:55:59;;;;;;;11.03;7.97;;;17.70;45.90;;;;;;5037367;28;46359;-71
2023/08/17 01:58:25;;;;;;;10.67;7.23;;;17.70;45.80;;;;;;5034339;28;46547;-73
2023/08/17 02:00:51;;;;;;;10.83;7.93;;;;;;;;;;5030245;28;46504;-71
2023/08/17 02:03:17;;;;;;;12.47;8.67;;;;;;;;;;5034286;28;46465;-71
2023/08/17 02:05:46;;;;;;;11.37;7.83;;;17.60;45.30;;;;;;5035835;28;46494;-71
2023/08/17 02:08:12;;;;;;;11.30;7.40;;;;;;;;;;5035066;28;46255;-71
2023/08/17 02:10:38;;;;;;;13.13;8.07;;;;;;;;;;5036529;28;46571;-71
2023/08/17 02:13:05;;;;;;;9.70;7.47;;;17.40;52.20;;;;;;5036847;28;46605;-71
2023/08/17 02:15:30;;;;;;;11.77;7.97;;;17.30;52.00;;;;;;5034350;28;46017;-72
2023/08/17 02:18:00;;;;;;;11.73;7.70;;;17.40;46.10;;;;;;5035119;28;46496;-73
2023/08/17 02:20:26;;;;;;;11.97;8.40;;;;;;;;;;5035920;28;46819;-74
2023/08/17 02:22:52;;;;;;;12.07;9.03;;;17.30;48.40;;;;;;5042163;28;46942;-71
2023/08/17 02:25:18;;;;;;;13.97;9.17;;;;;;;;;;5035439;28;47186;-73
2023/08/17 02:27:44;;;;;;;13.93;9.23;;;;;;;;;;5036372;28;46417;-74
2023/08/17 02:30:10;;;;;;;13.40;8.53;;;17.00;46.50;;;;;;5036645;28;46437;-71
2023/08/17 02:32:36;;;;;;;13.60;9.10;;;;;;;;;;5036296;28;45863;-72
2023/08/17 02:35:02;;;;;;;17.07;7.40;;;17.30;46.60;;;;;;5035416;28;47205;-72
2023/08/17 02:37:27;;;;;;;11.70;6.93;;;17.30;46.50;;;;;;5031951;28;46500;-73
2023/08/17 02:39:53;;;;;;;11.97;7.43;;;17.30;46.60;;;;;;5037091;28;46292;-73
2023/08/17 02:42:19;;;;;;;11.00;7.63;;;17.30;46.60;;;;;;5034026;28;46486;-70
2023/08/17 02:44:44;;;;;;;8.87;6.83;;;17.30;46.60;;;;;;5034796;28;46534;-71
2023/08/17 02:47:10;;;;;;;11.10;7.57;;;17.30;47.40;;;;;;5035328;28;46407;-72
2023/08/17 02:49:36;;;;;;;12.73;7.37;;;;;;;;;;5033270;28;46456;-72
2023/08/17 02:52:02;;;;;;;9.47;7.43;;;17.30;46.30;;;;;;5034518;28;46525;-72
2023/08/17 02:54:27;;;;;;;11.10;8.57;;;17.30;47.20;;;;;;5034664;28;46779;-70
2023/08/17 02:56:53;;;;;;;15.63;7.87;;;17.30;46.10;;;;;;5035364;28;46437;-71
2023/08/17 02:59:18;;;;;;;13.60;9.47;;;17.40;47.30;;;;;;5034691;28;46422;-72
2023/08/17 03:01:45;;;;;;;17.53;11.23;;;17.40;47.20;;;;;;5033998;28;46425;-72
2023/08/17 03:04:11;;;;;;;18.73;11.37;;;17.40;47.30;;;;;;5035459;28;46970;-71
2023/08/17 03:06:36;;;;;;;13.87;10.10;;;17.40;46.60;;;;;;5034750;28;46490;-73
2023/08/17 03:09:02;;;;;;;17.97;11.17;;;17.40;47.40;;;;;;5036877;28;46731;-73
2023/08/17 03:11:28;;;;;;;16.67;11.50;;;17.40;47.20;;;;;;5034658;28;46410;-72
2023/08/17 03:13:59;;;;;;;18.00;11.53;;;17.40;47.80;;;;;;5034217;28;46497;-72
2023/08/17 03:16:29;;;;;;;16.53;12.03;;;17.40;47.20;;;;;;5033590;28;46671;-71
2023/08/17 03:18:55;;;;;;;22.50;12.30;;;17.40;48.10;;;;;;5038368;28;46375;-71
2023/08/17 03:21:21;;;;;;;20.43;12.77;;;17.40;48.20;;;;;;5037521;28;46426;-72
2023/08/17 03:23:47;;;;;;;23.03;13.50;;;17.50;48.50;;;;;;5040443;28;46485;-71
2023/08/17 03:26:13;;;;;;;21.57;12.10;;;17.50;48.20;;;;;;5039996;28;46695;-71
2023/08/17 03:28:38;;;;;;;16.90;11.70;;;17.50;49.00;;;;;;5039118;28;46753;-73
2023/08/17 03:31:04;;;;;;;17.07;10.73;;;17.50;49.10;;;;;;5037950;28;46376;-71
2023/08/17 03:33:29;;;;;;;15.37;10.40;;;17.40;49.50;;;;;;5038777;28;45919;-73
2023/08/17 03:35:55;;;;;;;14.43;9.80;;;17.30;49.40;;;;;;5038621;28;46423;-72
2023/08/17 03:38:21;;;;;;;14.37;8.43;;;17.20;50.50;;;;;;5038704;28;45849;-72
2023/08/17 03:40:47;;;;;;;16.13;9.50;;;17.10;50.60;;;;;;5039127;28;46432;-72
2023/08/17 03:43:13;;;;;;;15.30;8.50;;;17.10;50.70;;;;;;5039341;28;46411;-70
2023/08/17 03:45:41;;;;;;;12.90;8.67;;;16.90;49.70;;;;;;5035601;28;46371;-73
2023/08/17 03:48:07;;;;;;;20.43;10.20;;;16.90;50.80;;;;;;5037956;28;46512;-71
2023/08/17 03:50:32;;;;;;;11.53;8.50;;;16.90;50.70;;;;;;5038345;28;46652;-72
2023/08/17 03:52:58;;;;;;;18.43;9.17;;;16.80;50.60;;;;;;5038059;28;47392;-72
2023/08/17 03:55:23;;;;;;;13.43;10.07;;;16.80;49.70;;;;;;5037424;28;46466;-72
2023/08/17 03:57:49;;;;;;;14.03;8.27;;;16.80;50.50;;;;;;5039108;28;47051;-73
2023/08/17 04:00:14;;;;;;;14.20;9.70;;;16.80;50.40;;;;;;5037378;28;46383;-71
2023/08/17 04:02:40;;;;;;;12.73;9.87;;;16.80;50.30;;;;;;5036798;28;46430;-72
2023/08/17 04:05:06;;;;;;;19.07;9.70;;;16.80;49.20;;;;;;5036373;28;46259;-71
2023/08/17 04:07:31;;;;;;;14.00;10.00;;;16.70;49.60;;;;;;5036821;28;46450;-71
2023/08/17 04:09:57;;;;;;;16.33;9.60;;;16.60;49.40;;;;;;5037510;28;46454;-71
2023/08/17 04:12:23;;;;;;;19.20;10.57;;;16.60;50.30;;;;;;5037110;28;46486;-71
2023/08/17 04:14:48;;;;;;;15.67;9.80;;;16.70;49.40;;;;;;5035924;28;46688;-73
2023/08/17 04:17:14;;;;;;;19.23;9.73;;;16.70;50.30;;;;;;5037510;28;46911;-72
2023/08/17 04:19:40;;;;;;;17.13;10.60;;;;;;;;;;5036569;28;46450;-72
2023/08/17 04:22:06;;;;;;;12.63;9.23;;;16.70;48.80;;;;;;5038614;28;47195;-73
2023/08/17 04:24:31;;;;;;;17.57;10.60;;;16.80;49.70;;;;;;5037618;28;46526;-72
2023/08/17 04:26:57;;;;;;;19.20;11.10;;;16.90;48.50;;;;;;5037192;28;46451;-72
2023/08/17 04:29:22;;;;;;;13.60;9.87;;;16.90;49.50;;;;;;5035454;28;46469;-72
2023/08/17 04:31:48;;;;;;;12.23;9.27;;;17.00;49.50;;;;;;5034872;28;47569;-73
2023/08/17 04:34:13;;;;;;;15.23;9.60;;;17.10;49.30;;;;;;5036963;28;46792;-73
2023/08/17 04:36:39;;;;;;;11.60;8.90;;;17.10;48.30;;;;;;5035605;28;45845;-73
2023/08/17 04:39:05;;;;;;;21.93;10.10;;;17.10;49.20;;;;;;5037812;28;46753;-71
2023/08/17 04:41:31;;;;;;;13.80;8.63;;;17.10;49.30;;;;;;5037035;28;46426;-72
2023/08/17 04:43:56;;;;;;;13.10;9.70;;;17.20;49.30;;;;;;5037170;28;46529;-72
2023/08/17 04:46:22;;;;;;;19.00;10.20;;;17.20;48.20;;;;;;5036064;28;46494;-73
2023/08/17 04:48:47;;;;;;;15.10;10.00;;;17.10;49.30;;;;;;5035972;28;46823;-70
2023/08/17 04:51:14;;;;;;;17.60;9.80;;;17.10;49.40;;;;;;5036873;28;47014;-74
2023/08/17 04:53:40;;;;;;;13.83;9.83;;;17.10;49.30;;;;;;5034864;28;46534;-72
2023/08/17 04:56:05;;;;;;;12.73;8.80;;;17.30;48.30;;;;;;5036539;28;46411;-71
2023/08/17 04:58:31;;;;;;;15.03;9.10;;;17.30;49.00;;;;;;5036575;28;46423;-70
2023/08/17 05:00:57;;;;;;;12.63;9.63;;;;;;;;;;5035587;28;46383;-72
2023/08/17 05:03:23;;;;;;;16.53;9.43;;;17.50;47.10;;;;;;5035015;28;46443;-73
2023/08/17 05:05:49;;;;;;;17.17;10.40;;;17.90;45.90;;;;;;5036290;28;46559;-71
2023/08/17 05:08:14;;;;;;;12.90;9.40;;;18.10;46.00;;;;;;5037950;28;46410;-72
2023/08/17 05:10:40;;;;;;;16.77;10.47;;;18.40;45.10;;;;;;5035094;28;46894;-72
2023/08/17 05:13:05;;;;;;;15.10;10.20;;;18.40;46.20;;;;;;5035887;28;46452;-72
2023/08/17 05:15:31;;;;;;;12.20;9.43;;;18.40;45.10;;;;;;5037184;28;46710;-73
2023/08/17 05:17:56;;;;;;;15.23;9.20;;;18.60;46.40;;;;;;5037017;28;46552;-72
2023/08/17 05:20:22;;;;;;;11.30;7.60;;;18.80;45.90;;;;;;5035291;28;47070;-72
2023/08/17 05:22:48;;;;;;;20.13;9.87;;;18.90;44.60;;;;;;5032262;28;46680;-72
2023/08/17 05:25:13;;;;;;;16.00;7.93;;;19.10;44.40;;;;;;5036149;28;45892;-71
2023/08/17 05:27:39;;;;;;;11.90;8.57;;;19.10;45.30;;;;;;5036529;28;46640;-73
2023/08/17 05:30:05;;;;;;;17.10;8.40;;;19.20;45.40;;;;;;5037062;28;47012;-72
2023/08/17 05:32:31;;;;;;;12.40;8.27;;;19.20;45.10;;;;;;5035824;28;46851;-71
2023/08/17 05:34:57;;;;;;;18.83;8.10;;;20.40;41.70;;;;;;5036144;28;46373;-71
2023/08/17 05:37:22;;;;;;;9.37;6.70;;;20.60;42.50;;;;;;5034284;28;46828;-71
2023/08/17 05:39:48;;;;;;;12.03;7.97;;;21.40;40.00;;;;;;5036615;28;47159;-70
2023/08/17 05:42:14;;;;;;;17.50;8.80;;;22.20;37.40;;;;;;5034975;28;46471;-71
2023/08/17 05:44:39;;;;;;;13.93;7.83;;;24.00;31.80;;;;;;5032261;28;46460;-70
2023/08/17 05:47:05;;;;;;;12.50;8.07;;;23.90;32.40;;;;;;5033160;28;47009;-71
2023/08/17 05:49:31;;;;;;;10.63;8.63;;;24.70;29.80;;;;;;5033555;28;46415;-73
2023/08/17 05:51:56;;;;;;;11.23;7.90;;;25.30;28.00;;;;;;5033609;28;45892;-71
2023/08/17 05:54:22;;;;;;;9.50;7.60;;;26.00;26.50;;;;;;5035912;28;46855;-71
2023/08/17 05:56:47;;;;;;;10.47;8.07;;;26.40;23.60;;;;;;5036397;28;46585;-71
2023/08/17 05:59:13;;;;;;;10.97;8.23;;;26.80;23.60;;;;;;5035326;28;46014;-70
2023/08/17 06:01:40;;;;;;;12.10;8.60;;;27.20;22.40;;;;;;5035261;28;46525;-70
2023/08/17 06:04:06;;;;;;;14.47;8.57;;;27.50;21.30;;;;;;5036172;28;46459;-70
2023/08/17 06:06:31;;;;;;;12.70;8.80;;;27.90;18.30;;;;;;5033385;28;46368;-70
2023/08/17 06:08:57;;;;;;;12.70;8.97;;;28.10;18.90;;;;;;5036170;28;46997;-69
2023/08/17 06:11:23;;;;;;;14.70;7.90;;;28.40;17.00;;;;;;5049888;22;47173;-70
2023/08/17 06:13:49;;;;;;;12.80;7.70;;;28.50;16.70;;;;;;5022579;28;46467;-70
2023/08/17 06:16:15;;;;;;;12.37;8.10;;;28.80;14.90;;;;;;5027520;28;46765;-71
2023/08/17 06:18:41;;;;;;;10.60;8.27;;;29.00;15.50;;;;;;5027652;28;46572;-70
2023/08/17 06:21:08;;;;;;;13.30;8.30;;;29.30;14.40;;;;;;5023715;28;46602;-69
2023/08/17 06:23:33;;;;;;;18.77;7.97;;;29.60;13.40;;;;;;5034151;28;46668;-68
2023/08/17 06:26:00;;;;;;;15.03;8.37;;;30.10;10.80;;;;;;5031190;28;46782;-68
2023/08/17 06:28:27;;;;;;;11.33;8.83;;;30.20;11.30;;;;;;5037753;28;46756;-68
2023/08/17 06:30:54;;;;;;;15.33;7.77;;;30.20;10.60;;;;;;5033818;28;45911;-66
2023/08/17 06:33:23;;;;;;;12.80;9.07;;;29.80;10.70;;;;;;5039277;28;46364;-68
2023/08/17 06:35:49;;;;;;;17.73;8.70;;;29.00;12.10;;;;;;5039685;28;45927;-68
2023/08/17 06:38:15;;;;;;;17.07;8.67;;;28.10;14.20;;;;;;5033771;28;45990;-70
2023/08/17 06:40:41;;;;;;;13.73;8.40;;;27.30;14.60;;;;;;5035602;28;46475;-69
2023/08/17 06:43:07;;;;;;;17.80;9.30;;;26.60;16.40;;;;;;5032833;28;46896;-68
2023/08/17 06:45:33;;;;;;;14.13;9.93;;;27.50;12.50;;;;;;5035448;28;46508;-66
2023/08/17 06:47:59;;;;;;;15.67;9.60;;;27.70;12.80;;;;;;5021114;28;46418;-69
2023/08/17 06:50:26;;;;;;;10.97;8.60;;;28.40;11.20;;;;;;5031387;28;46494;-69
2023/08/17 06:52:52;;;;;;;11.90;7.90;;;28.90;9.90;;;;;;5030641;28;46715;-70
2023/08/17 06:55:18;;;;;;;10.07;7.57;;;29.30;8.70;;;;;;5038456;28;46617;-66
2023/08/17 06:57:44;;;;;;;13.73;9.30;;;28.90;9.80;;;;;;5014334;28;46563;-70
2023/08/17 07:00:12;;;;;;;10.50;7.57;;;27.80;12.80;;;;;;5035426;28;46397;-68
2023/08/17 07:02:37;;;;;;;16.00;8.80;;;26.90;15.30;;;;;;5034813;28;46328;-66
2023/08/17 07:05:04;;;;;;;12.77;9.33;;;26.10;16.80;;;;;;5030873;28;46478;-67
2023/08/17 07:07:33;;;;;;;13.60;9.10;;;25.80;18.30;;;;;;5028353;28;46736;-67
2023/08/17 07:09:58;;;;;;;17.67;10.00;;;25.60;19.10;;;;;;5036398;28;46734;-69
2023/08/17 07:12:24;;;;;;;12.20;8.73;;;25.60;19.90;;;;;;5038883;28;46402;-68
2023/08/17 07:14:50;;;;;;;14.73;10.70;;;25.50;20.10;;;;;;5037006;28;45822;-70
2023/08/17 07:17:16;;;;;;;14.33;10.40;;;25.80;21.20;;;;;;5030173;28;47519;-68
2023/08/17 07:19:42;;;;;;;15.70;10.47;;;25.50;20.90;;;;;;5039823;28;46394;-69
2023/08/17 07:22:08;;;;;;;12.83;9.27;;;25.60;21.20;;;;;;5034852;28;46745;-69
2023/08/17 07:24:35;;;;;;;12.83;9.20;;;;;;;;;;5030469;28;45947;-67
2023/08/17 07:27:00;;;;;;;13.50;9.57;;;25.80;20.10;;;;;;5036049;28;46506;-68
2023/08/17 07:29:26;;;;;;;13.90;10.00;;;26.10;21.10;;;;;;5032013;28;46454;-67
2023/08/17 07:31:53;;;;;;;17.70;10.27;;;26.00;21.20;;;;;;5031754;28;46272;-69
2023/08/17 07:34:18;;;;;;;13.23;9.50;;;26.00;21.40;;;;;;5038325;28;46452;-68
2023/08/17 07:36:44;;;;;;;14.43;10.30;;;26.20;20.50;;;;;;5034073;28;46025;-68
2023/08/17 07:39:10;;;;;;;14.60;8.87;;;26.20;21.40;;;;;;5034031;28;46676;-69
2023/08/17 07:41:35;;;;;;;13.57;9.80;;;26.30;21.40;;;;;;5040029;28;46542;-71
2023/08/17 07:44:01;;;;;;;17.40;10.07;;;26.40;21.00;;;;;;5032548;28;46495;-69
2023/08/17 07:46:27;;;;;;;15.40;9.33;;;26.30;21.10;;;;;;5030330;28;46757;-67
2023/08/17 07:48:53;;;;;;;13.63;8.43;;;26.30;21.20;;;;;;5034264;28;45847;-68
2023/08/17 07:51:19;;;;;;;12.90;8.60;;;26.50;20.90;;;;;;5033379;28;46612;-69
2023/08/17 07:53:44;;;;;;;11.40;8.00;;;26.60;20.70;;;;;;5028886;28;46769;-68
2023/08/17 07:56:10;;;;;;;9.93;7.10;;;26.60;20.70;;;;;;5035947;28;46714;-70
2023/08/17 07:58:36;;;;;;;10.33;7.10;;;26.70;20.70;;;;;;5016003;28;46782;-70
2023/08/17 08:01:02;;;;;;;12.63;6.70;;;26.80;20.50;;;;;;5023233;28;46692;-65
2023/08/17 08:03:27;;;;;;;11.37;6.87;;;26.90;20.20;;;;;;5027998;28;46160;-66
2023/08/17 08:05:53;;;;;;;13.43;6.80;;;27.00;19.90;;;;;;5035531;28;47736;-67
2023/08/17 08:08:19;;;;;;;11.70;6.83;;;27.20;19.30;;;;;;5036881;28;46490;-69
2023/08/17 08:10:45;;;;;;;9.70;7.03;;;27.40;19.00;;;;;;5024391;28;46952;-72
2023/08/17 08:13:11;;;;;;;9.53;6.77;;;27.30;18.90;;;;;;5036301;28;46644;-65
2023/08/17 08:15:37;;;;;;;9.70;6.57;;;27.20;18.00;;;;;;5039467;28;47815;-67
2023/08/17 08:18:03;;;;;;;9.07;6.27;;;27.30;17.80;;;;;;5082666;22;46546;-69
2023/08/17 08:20:29;;;;;;;7.40;6.03;;;27.40;18.80;;;;;;5069894;28;46458;-69
2023/08/17 08:22:54;;;;;;;10.60;6.17;;;27.50;18.70;;;;;;5064161;27;46316;-68
2023/08/17 08:25:20;;;;;;;6.37;4.50;;;27.60;18.10;;;;;;5060508;28;46353;-71
2023/08/17 08:27:46;;;;;;;14.13;4.93;;;27.70;17.80;;;;;;5044670;28;46758;-67
2023/08/17 08:30:12;;;;;;;9.50;4.90;;;27.80;17.30;;;;;;5043282;28;46526;-71
2023/08/17 08:32:38;;;;;;;9.40;5.30;;;27.90;17.00;;;;;;5031043;28;45920;-69
2023/08/17 08:35:04;;;;;;;10.73;5.27;;;28.00;16.50;;;;;;5032674;28;48216;-68
2023/08/17 08:37:31;;;;;;;9.40;5.10;;;27.80;16.40;;;;;;5040374;28;46574;-69
2023/08/17 08:39:56;;;;;;;8.13;5.43;;;27.80;16.40;;;;;;5037526;28;46628;-68
2023/08/17 08:42:24;;;;;;;10.23;5.30;;;28.00;16.30;;;;;;5041018;28;46433;-68
2023/08/17 08:44:50;;;;;;;7.43;4.80;;;28.20;14.90;;;;;;5008419;28;46759;-68
2023/08/17 08:47:17;;;;;;;5.83;4.20;;;28.20;15.20;;;;;;5044355;28;46425;-69
2023/08/17 08:50:01;;;;;;;10.90;4.90;;;28.10;14.80;;;;;;5042290;28;45836;-70
2023/08/17 08:52:35;;;;;;;9.23;4.90;;;27.90;14.90;;;;;;5040093;28;46507;-68
2023/08/17 08:55:23;;;;;;;7.60;5.13;;;28.00;15.10;;;;;;5044654;28;47470;-70
2023/08/17 08:57:49;;;;;;;8.10;4.90;;;27.90;14.80;;;;;;5035129;28;46469;-69
2023/08/17 09:00:17;;;;;;;6.20;3.90;;;28.00;14.30;;;;;;5045699;28;46452;-67
2023/08/17 09:02:43;;;;;;;9.00;4.30;;;28.20;14.20;;;;;;5036531;28;46422;-68
2023/08/17 09:05:11;;;;;;;5.90;4.37;;;28.30;13.70;;;;;;5041767;28;46784;-67
2023/08/17 09:07:39;;;;;;;5.10;4.10;;;28.40;13.30;;;;;;5044573;28;46356;-68
2023/08/17 09:10:05;;;;;;;7.30;4.47;;;28.10;13.10;;;;;;5046639;28;46669;-69
2023/08/17 09:12:32;;;;;;;9.63;4.50;;;28.10;13.20;;;;;;5041902;28;46352;-68
2023/08/17 09:14:58;;;;;;;6.90;4.73;;;28.20;13.10;;;;;;5040836;28;46135;-67
2023/08/17 09:17:25;;;;;;;10.47;4.80;;;28.40;12.80;;;;;;5037082;28;46439;-69
2023/08/17 09:19:51;;;;;;;5.63;4.47;;;28.60;12.80;;;;;;5039006;28;46591;-68
2023/08/17 09:22:43;;;;;;;7.93;4.57;;;28.80;11.70;;;;;;5050197;22;46440;-68
2023/08/17 09:25:10;;;;;;;5.90;4.40;;;28.80;12.20;;;;;;5038550;28;47910;-67
2023/08/17 09:27:41;;;;;;;6.90;4.27;;;28.80;12.20;;;;;;5041035;28;46453;-70
2023/08/17 09:30:10;;;;;;;9.20;4.63;;;28.90;11.30;;;;;;5037535;28;46302;-69
2023/08/17 09:32:37;;;;;;;10.07;4.87;;;29.00;11.90;;;;;;5041303;28;45985;-67
2023/08/17 09:35:06;;;;;;;8.03;4.60;;;28.80;11.50;;;;;;5052259;28;47171;-68
2023/08/17 09:37:33;;;;;;;8.83;5.00;;;28.80;12.30;;;;;;5041280;28;46166;-68
2023/08/17 09:40:00;;;;;;;12.53;4.50;;;29.00;12.30;;;;;;5040284;28;46726;-69
2023/08/17 09:42:28;;;;;;;6.53;4.77;;;29.00;11.90;;;;;;5043662;28;46183;-69
2023/08/17 09:44:57;;;;;;;11.90;6.03;;;29.30;10.30;;;;;;5043843;28;47185;-68
2023/08/17 09:47:23;;;;;;;7.50;4.70;;;29.30;10.90;;;;;;5045391;28;46357;-69
2023/08/17 09:49:51;;;;;;;9.40;4.93;;;29.30;10.80;;;;;;5062048;28;46466;-69
2023/08/17 09:52:22;;;;;;;5.80;4.60;;;29.30;10.70;;;;;;5048207;28;46681;-70
2023/08/17 09:54:47;;;;;;;11.13;5.23;;;29.70;9.40;;;;;;5047941;28;46451;-69
2023/08/17 09:57:14;;;;;;;6.10;4.07;;;29.80;10.00;;;;;;5051988;28;46394;-67
2023/08/17 09:59:40;;;;;;;9.20;5.50;;;29.80;9.20;;;;;;5048373;28;46466;-69
2023/08/17 10:02:19;;;;;;;6.97;5.00;;;29.80;9.20;;;;;;5045992;28;46685;-68
2023/08/17 10:04:52;;;;;;;7.20;5.30;;;29.70;8.80;;;;;;5039570;28;48092;-69
2023/08/17 10:07:24;;;;;;;7.77;4.63;;;29.70;9.50;;;;;;5039621;28;46518;-68
2023/08/17 10:10:10;;;;;;;6.40;4.20;;;29.60;9.50;;;;;;5040353;28;46239;-67
2023/08/17 10:12:44;;;;;;;8.00;5.10;;;29.80;9.50;;;;;;5037482;28;46420;-69
2023/08/17 10:15:12;;;;;;;8.33;4.77;;;29.80;9.20;;;;;;5041363;28;46449;-67
2023/08/17 10:17:51;;;;;;;10.77;4.87;;;29.80;9.90;;;;;;5042366;28;46389;-69
2023/08/17 10:20:18;;;;;;;7.77;4.63;;;30.00;8.70;;;;;;5046056;28;46166;-69
2023/08/17 10:22:59;;;;;;;9.30;4.90;;;30.00;8.30;;;;;;5036890;28;46706;-67
2023/08/17 10:25:27;;;;;;;11.20;4.40;;;30.00;8.10;;;;;;5024294;28;46363;-69
2023/08/17 10:27:54;;;;;;;5.97;3.87;;;30.20;8.00;;;;;;5039796;28;46519;-67
2023/08/17 10:30:21;;;;;;;10.67;4.40;;;30.30;7.90;;;;;;5039285;28;46447;-73
2023/08/17 10:32:47;;;;;;;8.70;5.00;;;30.60;7.70;;;;;;5038102;28;46538;-69
2023/08/17 10:35:14;;;;;;;12.00;4.23;;;30.80;6.60;;;;;;5030990;28;48926;-68
2023/08/17 10:37:40;;;;;;;7.13;4.40;;;30.90;6.60;;;;;;5045849;28;46490;-69
2023/08/17 10:40:07;;;;;;;7.03;3.80;;;30.90;6.60;;;;;;5049602;28;46478;-67
2023/08/17 10:42:36;;;;;;;10.03;5.07;;;31.00;6.80;;;;;;5038547;28;46345;-65
2023/08/17 10:45:22;;;;;;;5.60;3.50;;;31.00;6.70;;;;;;5035936;28;46440;-65
2023/08/17 10:47:47;;;;;;;5.73;4.30;;;31.00;6.70;;;;;;5041588;28;46446;-66
2023/08/17 10:50:24;;;;;;;7.10;4.27;;;31.00;6.70;;;;;;5037141;28;46680;-64
2023/08/17 10:52:54;;;;;;;5.30;4.00;;;31.00;6.70;;;;;;5037380;28;46555;-66
2023/08/17 10:55:41;;;;;;;4.77;3.90;;;31.10;6.70;;;;;;5033604;28;47293;-64
2023/08/17 10:58:08;;;;;;;9.50;4.20;;;31.30;6.40;;;;;;5036904;28;46470;-66
2023/08/17 11:00:36;;;;;;;5.20;4.00;;;31.30;6.10;;;;;;5038989;28;45834;-66
2023/08/17 11:03:06;;;;;;;5.90;3.60;;;31.20;5.70;;;;;;5034412;28;45880;-68
2023/08/17 11:05:43;;;;;;;6.10;3.70;;;31.20;5.40;;;;;;5040553;28;47087;-65
2023/08/17 11:08:29;;;;;;;10.73;4.20;;;31.10;5.90;;;;;;5035761;28;46420;-64
2023/08/17 11:11:13;;;;;;;7.37;4.27;;;30.80;4.50;;;;;;5024300;28;46562;-67
2023/08/17 11:13:44;;;;;;;6.47;4.00;;;30.50;4.90;;;;;;5023872;28;45931;-67
2023/08/17 11:16:12;;;;;;;9.10;4.07;;;30.60;4.60;;;;;;5058831;22;46749;-67
2023/08/17 11:18:38;;;;;;;6.47;3.87;;;30.60;4.90;;;;;;5062102;28;46599;-66
2023/08/17 11:21:06;;;;;;;6.03;3.50;;;30.70;4.60;;;;;;5057455;28;46676;-67
2023/08/17 11:23:37;;;;;;;5.40;3.70;;;30.90;3.30;;;;;;5070974;22;46461;-67
2023/08/17 11:26:04;;;;;;;6.60;3.40;;;31.00;3.20;;;;;;5058836;27;48167;-66
2023/08/17 11:28:40;;;;;;;5.77;3.80;;;31.10;3.00;;;;;;5044128;22;46028;-69
2023/08/17 11:31:09;;;;;;;4.40;3.20;;;31.30;3.80;;;;;;5030491;28;46547;-67
2023/08/17 11:33:36;;;;;;;7.30;3.90;;;31.40;3.40;;;;;;5035695;28;46730;-64
2023/08/17 11:36:05;;;;;;;5.43;3.70;;;31.60;2.30;;;;;;5036045;28;47404;-65
2023/08/17 11:38:39;;;;;;;5.00;3.70;;;31.40;2.30;;;;;;5070449;22;46361;-65
2023/08/17 11:41:08;;;;;;;4.60;3.57;;;31.30;3.40;;;;;;5062691;28;46176;-65
2023/08/17 11:43:35;;;;;;;7.73;3.37;;;31.20;3.70;;;;;;5041894;28;46823;-65
2023/08/17 11:46:01;;;;;;;5.17;3.60;;;31.00;3.10;;;;;;5049909;28;46135;-66
2023/08/17 11:48:27;;;;;;;4.90;3.53;;;31.00;4.00;;;;;;5043409;28;46388;-64
2023/08/17 11:50:55;;;;;;;5.70;3.73;;;31.00;4.10;;;;;;5040748;28;46542;-65
2023/08/17 11:53:22;;;;;;;8.50;3.97;;;31.10;4.00;;;;;;5022708;28;46553;-68
2023/08/17 11:55:48;;;;;;;5.70;3.70;;;31.20;3.00;;;;;;5039025;28;46222;-66
2023/08/17 11:58:14;;;;;;;4.90;3.70;;;31.30;3.40;;;;;;5038998;28;46373;-67
2023/08/17 12:00:44;;;;;;;4.87;3.57;;;31.30;2.70;;;;;;5023694;28;46658;-65
2023/08/17 12:03:14;;;;;;;6.17;3.03;;;31.30;2.30;;;;;;5034398;28;46542;-66
2023/08/17 12:05:41;;;;;;;7.87;4.37;;;31.50;2.20;;;;;;5037715;28;46444;-67
2023/08/17 12:08:08;;;;;;;7.40;3.57;;;31.40;1.60;;;;;;5057542;28;46416;-66
2023/08/17 12:10:34;;;;;;;6.27;3.87;;;31.40;1.60;;;;;;5042929;28;46363;-65
2023/08/17 12:13:01;;;;;;;7.83;3.60;;;31.40;1.20;;;;;;5041835;28;46507;-65
2023/08/17 12:15:35;;;;;;;5.30;3.67;;;31.50;1.40;;;;;;5040741;28;48410;-67
2023/08/17 12:18:03;;;;;;;8.80;4.17;;;31.40;1.00;;;;;;5045081;28;46462;-68
2023/08/17 12:20:35;;;;;;;8.37;3.77;;;31.40;1.00;;;;;;5035574;28;46495;-64
2023/08/17 12:23:02;;;;;;;5.40;3.50;;;31.50;1.00;;;;;;5038727;28;46178;-65
2023/08/17 12:25:30;;;;;;;9.00;3.50;;;31.40;1.00;;;;;;5040013;28;47396;-67
2023/08/17 12:27:58;;;;;;;7.03;4.00;;;31.40;1.00;;;;;;5013424;28;46539;-67
2023/08/17 12:30:31;;;;;;;5.90;3.60;;;31.40;1.00;;;;;;5029780;28;46743;-67
2023/08/17 12:32:57;;;;;;;6.10;2.97;;;31.30;1.00;;;;;;5033221;28;46385;-66
2023/08/17 12:35:24;;;;;;;8.13;4.20;;;31.10;1.00;;;;;;5036615;28;47502;-67
2023/08/17 12:37:50;;;;;;;8.30;4.10;;;31.00;1.00;;;;;;5033706;28;46774;-66
2023/08/17 12:40:16;;;;;;;7.93;4.17;;;30.80;1.00;;;;;;5033956;28;45819;-66
2023/08/17 12:42:42;;;;;;;7.37;3.97;;;30.70;1.20;;;;;;5033571;28;46575;-66
2023/08/17 12:45:07;;;;;;;5.70;4.17;;;30.60;1.00;;;;;;5032915;28;49151;-67
2023/08/17 12:47:33;;;;;;;11.57;4.47;;;30.60;1.00;;;;;;5035331;28;45762;-66